Time,TemperatureF,DewpointF,PressureIn,WindDirection,WindDirectionDegrees,WindSpeedMPH,WindSpeedGustMPH,Humidity,HourlyPrecipIn,Conditions,Clouds,dailyrainin,SolarRadiationWatts/m^2,SoftwareType,DateUTC
2013-06-02 00:01:00,39.0,38.0,-100.00,NNE,25,6.0,14.0,97,0.00,,,0.02,0.000000,,2013-06-02 05:01:00,
2013-06-02 00:23:00,39.0,38.0,-100.00,NNE,25,6.0,14.0,97,0.00,,,0.02,0.000000,,2013-06-02 05:23:00,
2013-06-02 00:32:00,39.0,38.0,-100.00,NNE,25,6.0,14.0,97,0.00,,,0.02,0.000000,,2013-06-02 05:32:00,
2013-06-02 00:42:00,39.0,38.0,-100.00,NNE,25,6.0,14.0,97,0.00,,,0.02,0.000000,,2013-06-02 05:42:00,
2013-06-02 00:52:00,39.0,38.0,-100.00,NNE,25,6.0,14.0,97,0.00,,,0.02,0.000000,,2013-06-02 05:52:00,
2013-06-02 01:01:00,39.0,38.0,-100.00,NNE,28,7.0,19.0,96,0.00,,,0.02,0.000000,,2013-06-02 06:01:00,
2013-06-02 01:21:00,39.0,38.0,-100.00,NNE,28,7.0,19.0,96,0.00,,,0.02,0.000000,,2013-06-02 06:21:00,
2013-06-02 01:32:00,39.0,38.0,-100.00,NNE,28,7.0,19.0,96,0.00,,,0.02,0.000000,,2013-06-02 06:32:00,
2013-06-02 01:42:00,39.0,38.0,-100.00,NNE,28,7.0,19.0,96,0.00,,,0.02,0.000000,,2013-06-02 06:42:00,
2013-06-02 01:52:00,39.0,38.0,-100.00,NNE,28,7.0,19.0,96,0.00,,,0.02,0.000000,,2013-06-02 06:52:00,
2013-06-02 02:01:00,38.0,37.0,-100.00,NNE,24,6.0,12.0,96,0.00,,,0.02,0.000000,,2013-06-02 07:01:00,
2013-06-02 02:22:00,38.0,37.0,-100.00,NNE,24,6.0,12.0,96,0.00,,,0.02,0.000000,,2013-06-02 07:22:00,
2013-06-02 02:32:00,38.0,37.0,-100.00,NNE,24,6.0,12.0,96,0.00,,,0.02,0.000000,,2013-06-02 07:32:00,
2013-06-02 02:42:00,38.0,37.0,-100.00,NNE,24,6.0,12.0,96,0.00,,,0.02,0.000000,,2013-06-02 07:42:00,
2013-06-02 02:52:00,38.0,37.0,-100.00,NNE,24,6.0,12.0,96,0.00,,,0.02,0.000000,,2013-06-02 07:52:00,
2013-06-02 03:01:00,39.0,38.0,-100.00,North,11,5.0,13.0,97,0.00,,,0.02,0.000000,,2013-06-02 08:01:00,
2013-06-02 03:22:00,39.0,38.0,-100.00,North,11,5.0,13.0,97,0.00,,,0.02,0.000000,,2013-06-02 08:22:00,
2013-06-02 03:32:00,39.0,38.0,-100.00,North,11,5.0,13.0,97,0.00,,,0.02,0.000000,,2013-06-02 08:32:00,
2013-06-02 03:42:00,39.0,38.0,-100.00,North,11,5.0,13.0,97,0.00,,,0.02,0.000000,,2013-06-02 08:42:00,
2013-06-02 03:52:00,39.0,38.0,-100.00,North,11,5.0,13.0,97,0.00,,,0.02,0.000000,,2013-06-02 08:52:00,
2013-06-02 04:01:00,38.0,37.0,-100.00,North,11,5.0,14.0,97,0.01,,,0.03,0.000000,,2013-06-02 09:01:00,
2013-06-02 04:21:00,38.0,37.0,-100.00,North,11,5.0,14.0,97,0.01,,,0.03,0.000000,,2013-06-02 09:21:00,
2013-06-02 04:33:00,38.0,37.0,-100.00,North,11,5.0,14.0,97,0.01,,,0.03,0.000000,,2013-06-02 09:33:00,
2013-06-02 04:43:00,38.0,37.0,-100.00,North,11,5.0,14.0,97,0.01,,,0.03,0.000000,,2013-06-02 09:43:00,
2013-06-02 04:53:00,38.0,37.0,-100.00,North,11,5.0,14.0,97,0.01,,,0.03,0.000000,,2013-06-02 09:53:00,
2013-06-02 05:01:00,39.0,38.0,-100.00,NNE,16,4.0,11.0,97,0.01,,,0.04,0.000000,,2013-06-02 10:01:00,
2013-06-02 05:23:00,39.0,38.0,-100.00,NNE,16,4.0,11.0,97,0.01,,,0.04,0.000000,,2013-06-02 10:23:00,
2013-06-02 05:33:00,39.0,38.0,-100.00,NNE,16,4.0,11.0,97,0.01,,,0.04,0.000000,,2013-06-02 10:33:00,
2013-06-02 05:42:00,39.0,38.0,-100.00,NNE,16,4.0,11.0,97,0.01,,,0.04,0.000000,,2013-06-02 10:42:00,
2013-06-02 05:52:00,39.0,38.0,-100.00,NNE,16,4.0,11.0,97,0.01,,,0.04,0.000000,,2013-06-02 10:52:00,
2013-06-02 06:01:00,38.0,37.0,-100.00,NNE,13,7.0,15.0,96,0.00,,,0.04,6.000000,,2013-06-02 11:01:00,
2013-06-02 06:22:00,38.0,37.0,-100.00,NNE,13,7.0,15.0,96,0.00,,,0.04,6.000000,,2013-06-02 11:22:00,
2013-06-02 06:32:00,38.0,37.0,-100.00,NNE,13,7.0,15.0,96,0.00,,,0.04,6.000000,,2013-06-02 11:32:00,
2013-06-02 06:42:00,38.0,37.0,-100.00,NNE,13,7.0,15.0,96,0.00,,,0.04,6.000000,,2013-06-02 11:42:00,
2013-06-02 06:52:00,38.0,37.0,-100.00,NNE,13,7.0,15.0,96,0.00,,,0.04,6.000000,,2013-06-02 11:52:00,
2013-06-02 07:01:00,39.0,37.0,-100.00,North,354,5.0,15.0,93,0.00,,,0.04,33.000000,,2013-06-02 12:01:00,
2013-06-02 07:22:00,39.0,37.0,-100.00,North,354,5.0,15.0,93,0.00,,,0.04,33.000000,,2013-06-02 12:22:00,
2013-06-02 07:32:00,39.0,37.0,-100.00,North,354,5.0,15.0,93,0.00,,,0.04,33.000000,,2013-06-02 12:32:00,
2013-06-02 07:42:00,39.0,37.0,-100.00,North,354,5.0,15.0,93,0.00,,,0.04,33.000000,,2013-06-02 12:42:00,
2013-06-02 07:52:00,39.0,37.0,-100.00,North,354,5.0,15.0,93,0.00,,,0.04,33.000000,,2013-06-02 12:52:00,
2013-06-02 08:01:00,40.0,38.0,-100.00,North,356,4.0,13.0,92,0.00,,,0.04,84.000000,,2013-06-02 13:01:00,
2013-06-02 08:22:00,40.0,38.0,-100.00,North,356,4.0,13.0,92,0.00,,,0.04,84.000000,,2013-06-02 13:22:00,
2013-06-02 08:32:00,40.0,38.0,-100.00,North,356,4.0,13.0,92,0.00,,,0.04,84.000000,,2013-06-02 13:32:00,
2013-06-02 08:42:00,40.0,38.0,-100.00,North,356,4.0,13.0,92,0.00,,,0.04,84.000000,,2013-06-02 13:42:00,
2013-06-02 08:52:00,40.0,38.0,-100.00,North,356,4.0,13.0,92,0.00,,,0.04,84.000000,,2013-06-02 13:52:00,
2013-06-02 09:01:00,43.0,37.0,-100.00,North,3,7.0,18.0,80,0.00,,,0.04,245.000000,,2013-06-02 14:01:00,
2013-06-02 09:22:00,43.0,37.0,-100.00,North,3,7.0,18.0,80,0.00,,,0.04,245.000000,,2013-06-02 14:22:00,
2013-06-02 09:32:00,43.0,37.0,-100.00,North,3,7.0,18.0,80,0.00,,,0.04,245.000000,,2013-06-02 14:32:00,
2013-06-02 09:42:00,43.0,37.0,-100.00,North,3,7.0,18.0,80,0.00,,,0.04,245.000000,,2013-06-02 14:42:00,
2013-06-02 09:52:00,43.0,37.0,-100.00,North,3,7.0,18.0,80,0.00,,,0.04,245.000000,,2013-06-02 14:52:00,
2013-06-02 10:01:00,43.0,36.0,-100.00,NNW,347,6.0,16.0,77,0.00,,,0.04,321.000000,,2013-06-02 15:01:00,
2013-06-02 10:22:00,43.0,36.0,-100.00,NNW,347,6.0,16.0,77,0.00,,,0.04,321.000000,,2013-06-02 15:22:00,
2013-06-02 10:33:00,43.0,36.0,-100.00,NNW,347,6.0,16.0,77,0.00,,,0.04,321.000000,,2013-06-02 15:33:00,
2013-06-02 10:43:00,43.0,36.0,-100.00,NNW,347,6.0,16.0,77,0.00,,,0.04,321.000000,,2013-06-02 15:43:00,
2013-06-02 10:53:00,43.0,36.0,-100.00,NNW,347,6.0,16.0,77,0.00,,,0.04,321.000000,,2013-06-02 15:53:00,
2013-06-02 11:01:00,45.0,35.0,-100.00,NNW,336,7.0,16.0,68,0.00,,,0.04,439.000000,,2013-06-02 16:01:00,
2013-06-02 11:23:00,45.0,35.0,-100.00,NNW,336,7.0,16.0,68,0.00,,,0.04,439.000000,,2013-06-02 16:23:00,
2013-06-02 11:33:00,45.0,35.0,-100.00,NNW,336,7.0,16.0,68,0.00,,,0.04,439.000000,,2013-06-02 16:33:00,
2013-06-02 11:42:00,45.0,35.0,-100.00,NNW,336,7.0,16.0,68,0.00,,,0.04,439.000000,,2013-06-02 16:42:00,
2013-06-02 11:53:00,45.0,35.0,-100.00,NNW,336,7.0,16.0,68,0.00,,,0.04,439.000000,,2013-06-02 16:53:00,
2013-06-02 12:01:00,45.0,36.0,-100.00,NW,313,6.0,15.0,70,0.00,,,0.04,516.000000,,2013-06-02 17:01:00,
2013-06-02 12:23:00,45.0,36.0,-100.00,NW,313,6.0,15.0,70,0.00,,,0.04,516.000000,,2013-06-02 17:23:00,
2013-06-02 12:32:00,45.0,36.0,-100.00,NW,313,6.0,15.0,70,0.00,,,0.04,516.000000,,2013-06-02 17:32:00,
2013-06-02 12:42:00,45.0,36.0,-100.00,NW,313,6.0,15.0,70,0.00,,,0.04,516.000000,,2013-06-02 17:42:00,
2013-06-02 12:52:00,45.0,36.0,-100.00,NW,313,6.0,15.0,70,0.00,,,0.04,516.000000,,2013-06-02 17:52:00,
2013-06-02 13:01:00,48.0,36.0,-100.00,NW,320,7.0,15.0,62,0.00,,,0.04,727.000000,,2013-06-02 18:01:00,
2013-06-02 13:22:00,48.0,36.0,-100.00,NW,320,7.0,15.0,62,0.00,,,0.04,727.000000,,2013-06-02 18:22:00,
2013-06-02 13:32:00,48.0,36.0,-100.00,NW,320,7.0,15.0,62,0.00,,,0.04,727.000000,,2013-06-02 18:32:00,
2013-06-02 13:42:00,48.0,36.0,-100.00,NW,320,7.0,15.0,62,0.00,,,0.04,727.000000,,2013-06-02 18:42:00,
2013-06-02 13:52:00,48.0,36.0,-100.00,NW,320,7.0,15.0,62,0.00,,,0.04,727.000000,,2013-06-02 18:52:00,
2013-06-02 14:01:00,51.0,35.0,-100.00,NW,307,7.0,16.0,55,0.00,,,0.04,977.000000,,2013-06-02 19:01:00,
2013-06-02 14:22:00,51.0,35.0,-100.00,NW,307,7.0,16.0,55,0.00,,,0.04,977.000000,,2013-06-02 19:22:00,
2013-06-02 14:32:00,51.0,35.0,-100.00,NW,307,7.0,16.0,55,0.00,,,0.04,977.000000,,2013-06-02 19:32:00,
2013-06-02 14:42:00,51.0,35.0,-100.00,NW,307,7.0,16.0,55,0.00,,,0.04,977.000000,,2013-06-02 19:42:00,
2013-06-02 14:52:00,51.0,35.0,-100.00,NW,307,7.0,16.0,55,0.00,,,0.04,977.000000,,2013-06-02 19:52:00,
2013-06-02 15:01:00,53.0,33.0,-100.00,NW,318,10.0,20.0,46,0.00,,,0.04,1035.000000,,2013-06-02 20:01:00,
2013-06-02 15:22:00,53.0,33.0,-100.00,NW,318,10.0,20.0,46,0.00,,,0.04,1035.000000,,2013-06-02 20:22:00,
2013-06-02 15:32:00,53.0,33.0,-100.00,NW,318,10.0,20.0,46,0.00,,,0.04,1035.000000,,2013-06-02 20:32:00,
2013-06-02 15:42:00,53.0,33.0,-100.00,NW,318,10.0,20.0,46,0.00,,,0.04,1035.000000,,2013-06-02 20:42:00,
2013-06-02 15:52:00,53.0,33.0,-100.00,NW,318,10.0,20.0,46,0.00,,,0.04,1035.000000,,2013-06-02 20:52:00,
2013-06-02 16:01:00,55.0,34.0,-100.00,NNW,340,8.0,19.0,45,0.00,,,0.04,923.000000,,2013-06-02 21:01:00,
2013-06-02 16:22:00,55.0,34.0,-100.00,NNW,340,8.0,19.0,45,0.00,,,0.04,923.000000,,2013-06-02 21:22:00,
2013-06-02 16:33:00,55.0,34.0,-100.00,NNW,340,8.0,19.0,45,0.00,,,0.04,923.000000,,2013-06-02 21:33:00,
2013-06-02 16:43:00,55.0,34.0,-100.00,NNW,340,8.0,19.0,45,0.00,,,0.04,923.000000,,2013-06-02 21:43:00,
2013-06-02 16:53:00,55.0,34.0,-100.00,NNW,340,8.0,19.0,45,0.00,,,0.04,923.000000,,2013-06-02 21:53:00,
2013-06-02 17:01:00,57.0,36.0,-100.00,North,353,7.0,17.0,45,0.00,,,0.04,746.000000,,2013-06-02 22:01:00,
2013-06-02 17:23:00,57.0,36.0,-100.00,North,353,7.0,17.0,45,0.00,,,0.04,746.000000,,2013-06-02 22:23:00,
2013-06-02 17:33:00,57.0,36.0,-100.00,North,353,7.0,17.0,45,0.00,,,0.04,746.000000,,2013-06-02 22:33:00,
2013-06-02 17:42:00,57.0,36.0,-100.00,North,353,7.0,17.0,45,0.00,,,0.04,746.000000,,2013-06-02 22:42:00,
2013-06-02 17:53:00,57.0,36.0,-100.00,North,353,7.0,17.0,45,0.00,,,0.04,746.000000,,2013-06-02 22:53:00,
2013-06-02 18:01:00,58.0,35.0,-100.00,NNW,331,5.0,14.0,42,0.00,,,0.04,576.000000,,2013-06-02 23:01:00,
2013-06-02 18:22:00,58.0,35.0,-100.00,NNW,331,5.0,14.0,42,0.00,,,0.04,576.000000,,2013-06-02 23:22:00,
2013-06-02 18:32:00,58.0,35.0,-100.00,NNW,331,5.0,14.0,42,0.00,,,0.04,576.000000,,2013-06-02 23:32:00,
2013-06-02 18:42:00,58.0,35.0,-100.00,NNW,331,5.0,14.0,42,0.00,,,0.04,576.000000,,2013-06-02 23:42:00,
2013-06-02 18:52:00,58.0,35.0,-100.00,NNW,331,5.0,14.0,42,0.00,,,0.04,576.000000,,2013-06-02 23:52:00,
2013-06-02 19:01:00,57.0,34.0,-100.00,North,356,4.0,13.0,42,0.00,,,0.04,385.000000,,2013-06-03 00:01:00,
2013-06-02 19:22:00,57.0,34.0,-100.00,North,356,4.0,13.0,42,0.00,,,0.04,385.000000,,2013-06-03 00:22:00,
2013-06-02 19:32:00,57.0,34.0,-100.00,North,356,4.0,13.0,42,0.00,,,0.04,385.000000,,2013-06-03 00:32:00,
2013-06-02 19:42:00,57.0,34.0,-100.00,North,356,4.0,13.0,42,0.00,,,0.04,385.000000,,2013-06-03 00:42:00,
2013-06-02 19:52:00,57.0,34.0,-100.00,North,356,4.0,13.0,42,0.00,,,0.04,385.000000,,2013-06-03 00:52:00,
2013-06-02 20:01:00,55.0,36.0,-100.00,NNE,25,1.0,6.0,48,0.00,,,0.04,191.000000,,2013-06-03 01:01:00,
2013-06-02 20:21:00,55.0,36.0,-100.00,NNE,25,1.0,6.0,48,0.00,,,0.04,191.000000,,2013-06-03 01:21:00,
2013-06-02 20:32:00,55.0,36.0,-100.00,NNE,25,1.0,6.0,48,0.00,,,0.04,191.000000,,2013-06-03 01:32:00,
2013-06-02 20:42:00,55.0,36.0,-100.00,NNE,25,1.0,6.0,48,0.00,,,0.04,191.000000,,2013-06-03 01:42:00,
2013-06-02 20:52:00,55.0,36.0,-100.00,NNE,25,1.0,6.0,48,0.00,,,0.04,191.000000,,2013-06-03 01:52:00,
2013-06-02 21:01:00,43.0,40.0,-100.00,NNE,14,0.0,3.0,89,0.00,,,0.03,26.000000,,2013-06-03 02:01:00,
2013-06-02 21:22:00,43.0,40.0,-100.00,NNE,14,0.0,3.0,89,0.00,,,0.03,26.000000,,2013-06-03 02:22:00,
2013-06-02 21:32:00,43.0,40.0,-100.00,NNE,14,0.0,3.0,89,0.00,,,0.03,26.000000,,2013-06-03 02:32:00,
2013-06-02 21:42:00,43.0,40.0,-100.00,NNE,14,0.0,3.0,89,0.00,,,0.03,26.000000,,2013-06-03 02:42:00,
2013-06-02 21:52:00,43.0,40.0,-100.00,NNE,14,0.0,3.0,89,0.00,,,0.03,26.000000,,2013-06-03 02:52:00,
2013-06-02 22:01:00,38.0,37.0,-100.00,WNW,301,0.0,0.0,96,0.00,,,0.03,0.000000,,2013-06-03 03:01:00,
2013-06-02 22:22:00,38.0,37.0,-100.00,WNW,301,0.0,0.0,96,0.00,,,0.03,0.000000,,2013-06-03 03:22:00,
2013-06-02 22:33:00,38.0,37.0,-100.00,WNW,301,0.0,0.0,96,0.00,,,0.03,0.000000,,2013-06-03 03:33:00,
2013-06-02 22:43:00,38.0,37.0,-100.00,WNW,301,0.0,0.0,96,0.00,,,0.03,0.000000,,2013-06-03 03:43:00,
2013-06-02 22:53:00,38.0,37.0,-100.00,WNW,301,0.0,0.0,96,0.00,,,0.03,0.000000,,2013-06-03 03:53:00,
2013-06-02 23:01:00,35.0,34.0,-100.00,West,268,0.0,2.0,98,0.00,,,0.02,0.000000,,2013-06-03 04:01:00,
2013-06-02 23:23:00,35.0,34.0,-100.00,West,268,0.0,2.0,98,0.00,,,0.02,0.000000,,2013-06-03 04:23:00,
2013-06-02 23:33:00,35.0,34.0,-100.00,West,268,0.0,2.0,98,0.00,,,0.02,0.000000,,2013-06-03 04:33:00,
2013-06-02 23:42:00,35.0,34.0,-100.00,West,268,0.0,2.0,98,0.00,,,0.02,0.000000,,2013-06-03 04:42:00,
2013-06-02 23:53:00,35.0,34.0,-100.00,West,268,0.0,2.0,98,0.00,,,0.02,0.000000,,2013-06-03 04:53:00,